Latest Coastal Weather Observations for Cooktown

IDQ60701

Issued at 9:31 am EST Wednesday 22 April 2015 (issued every 10 minutes, with the page automatically refreshed every 10 minutes)

About coastal observations | Map of coastal stations | Coastal observations for QLD | Marine services | Other Formats
Station Details ID: 031209 Name: COOKTOWN AIRPORT Lat: -15.45 Lon: 145.19 Height: 4.8 m
Data from the previous 72 hours. | See also: Recent months at Cooktown
Date/Time
EST
Temp

°C
Wind Pressure Rain
since 9am
mm
Weather Cloud Vis
km
Sea
Height
m
Swell
Dir
 
Speed
knots
Gust
knots
hPa Trend Height
m
Period
s
Dir
22/09:30am 27.7 SSE 10 17 1012.8 - 0.0 - Partly cloudy 10 - - - -
22/09:00am 27.2 ESE 11 16 1012.4 R 0.0 Fine Mostly clear 30 - - - -
22/08:30am 26.4 SE 11 17 1012.3 - 0.0 - - 10 - - - -
22/08:00am 26.4 SE 8 13 1012.0 - 0.0 - - 10 - - - -
22/07:30am 25.6 ESE 9 13 1011.8 - 0.0 - - 10 - - - -
22/07:00am 24.9 SE 8 11 1011.5 - 0.0 - - 10 - - - -
22/06:30am 24.6 SE 8 13 1011.5 - 0.0 - - 10 - - - -
22/06:00am 24.6 SE 7 10 1011.2 - 0.0 - - 10 - - - -
22/05:30am 24.5 SE 7 13 1010.9 - 0.0 - - 10 - - - -
22/05:00am 24.3 SE 7 12 1010.7 - 0.0 - Partly cloudy 10 - - - -
22/04:30am 24.5 SE 7 11 1010.7 - 0.0 - - 10 - - - -
22/04:00am 24.7 SE 6 11 1010.7 - 0.0 - Partly cloudy 10 - - - -
22/03:30am 24.9 SSE 8 13 1010.6 - 0.0 - Partly cloudy 10 - - - -
22/03:00am 25.2 SE 7 13 1010.6 - 0.0 - Cloudy 10 - - - -
22/02:30am 25.2 SE 10 15 1010.8 - 0.0 - Partly cloudy 10 - - - -
22/02:00am 25.1 SE 7 11 1011.0 - 0.0 - Partly cloudy 10 - - - -
22/01:30am 25.3 SE 8 13 1011.3 - 0.0 - Cloudy 10 - - - -
22/01:00am 25.5 SE 10 17 1011.7 - 0.0 - Partly cloudy 10 - - - -
22/12:30am 25.6 SE 9 14 1012.1 - 0.0 - Cloudy 10 - - - -
22/12:00am 25.6 SE 10 15 1012.2 - 0.0 - Mostly clear 10 - - - -
 
Date/Time
EST
Temp

°C
Wind Pressure Rain
since 9am
mm
Weather Cloud Vis
km
Sea
Height
m
Swell
Dir
 
Speed
knots
Gust
knots
hPa Trend Height
m
Period
s
Dir
21/11:30pm 25.6 SE 11 17 1012.5 - 0.0 - Partly cloudy 10 - - - -
21/11:00pm 25.6 SE 10 17 1012.7 - 0.0 - Partly cloudy 10 - - - -
21/10:30pm 25.8 SE 12 21 1012.9 - 0.0 - Partly cloudy 10 - - - -
21/10:00pm 25.9 SE 13 20 1012.9 - 0.0 - Partly cloudy 10 - - - -
21/09:30pm 25.9 SSE 10 14 1013.1 - 0.0 - Partly cloudy 10 - - - -
21/09:00pm 25.6 SE 9 15 1012.8 - 0.0 - Cloudy 10 - - - -
21/08:30pm 25.6 SE 10 15 1012.8 - 0.0 - Partly cloudy 10 - - - -
21/08:00pm 25.6 SE 10 16 1012.5 - 0.0 - Partly cloudy 10 - - - -
21/07:30pm 25.8 SE 12 18 1012.2 - 0.0 - Partly cloudy 10 - - - -
21/07:00pm 25.5 SE 9 15 1011.8 - 0.0 - - 10 - - - -
21/06:30pm 25.7 SE 12 21 1011.5 - 0.0 - Partly cloudy 10 - - - -
21/06:00pm 25.7 SSE 10 15 1011.1 - 0.0 - Mostly clear 10 - - - -
21/05:30pm 26.0 SSE 11 20 1011.1 - 0.0 - Partly cloudy 10 - - - -
21/05:00pm 26.2 SE 12 18 1010.8 - 0.0 - Partly cloudy 10 - - - -
21/04:30pm 26.6 SE 10 16 1010.7 - 0.0 - Partly cloudy 10 - - - -
21/04:00pm 26.6 SE 11 18 1010.6 - 0.0 - Partly cloudy 10 - - - -
21/03:30pm 27.0 SE 10 20 1010.5 - 0.0 - Partly cloudy 10 - - - -
21/03:00pm 26.9 SE 11 19 1010.6 F 0.0 Fine Mostly cloudy 35 - - - -
21/02:31pm 26.9 SE 13 22 1011.0 - 0.0 - Partly cloudy 10 - - - -
21/02:30pm 26.9 SE 13 22 1011.0 - 0.0 - Partly cloudy 10 - - - -
21/02:00pm 27.3 SE 12 17 1011.3 - 0.0 - Partly cloudy 10 - - - -
21/01:43pm 27.2 SE 12 20 1011.5 - 0.0 - Partly cloudy 10 - - - -
21/01:30pm 27.3 SSE 13 19 1011.7 - 0.0 - Partly cloudy 10 - - - -
21/01:09pm 26.7 SE 15 27 1011.9 - 0.0 - Partly cloudy 10 - - - -
21/01:08pm 26.8 SE 15 27 1011.9 - 0.0 - Partly cloudy 10 - - - -
21/01:00pm 26.7 SE 14 23 1011.9 - 0.0 - Partly cloudy 10 - - - -
21/12:45pm 26.8 SE 16 27 1012.2 - 0.0 - Partly cloudy 10 - - - -
21/12:43pm 27.0 SE 15 25 1012.2 - 0.0 - Partly cloudy 10 - - - -
21/12:38pm 27.0 SE 17 25 1012.3 - 0.0 - Partly cloudy 10 - - - -
21/12:30pm 27.4 SE 15 25 1012.4 - 0.0 - Partly cloudy 10 - - - -
21/12:27pm 27.3 SSE 15 25 1012.4 - 0.0 - Partly cloudy 10 - - - -
21/12:25pm 27.4 SSE 14 25 1012.4 - 0.0 - Partly cloudy 10 - - - -
21/12:23pm 27.4 SE 14 25 1012.4 - 0.0 - Partly cloudy 10 - - - -
21/12:00pm 27.3 SSE 17 25 1012.7 - 0.0 - Partly cloudy 10 - - - -
21/11:37am 27.0 SE 15 25 1013.0 - 0.0 - Cloudy 10 - - - -
21/11:30am 27.0 SSE 15 24 1013.2 - 0.0 - Partly cloudy 10 - - - -
21/11:20am 27.1 SE 13 25 1013.2 - 0.0 - Partly cloudy 10 - - - -
21/11:00am 27.0 SSE 12 19 1013.4 - 0.0 - Partly cloudy 10 - - - -
21/10:30am 26.2 SE 11 16 1013.9 - 0.0 - Partly cloudy 10 - - - -
21/10:00am 25.5 SE 11 20 1013.8 - 0.0 - Partly cloudy 10 - - - -
21/09:57am 25.5 SE 11 20 1013.7 - 0.0 - Partly cloudy 10 - - - -
21/09:30am 25.3 SSE 11 19 1013.7 - 0.0 - Cloudy 10 - - - -
21/09:11am 24.6 SE 11 17 1013.7 - 0.0 - Partly cloudy 8 - - - -
21/09:05am 24.6 SE 11 17 1013.7 - 0.0 - Partly cloudy 6 - - - -
21/09:00am 24.7 SE 10 16 1013.5 R 3.6 Showers Cloudy 9 - - - -
21/08:58am 24.7 SE 11 16 1013.6 - 3.6 - Partly cloudy 5 - - - -
21/08:31am 25.0 SE 10 17 1013.1 - 3.6 - Partly cloudy 10 - - - -
21/08:30am 25.0 SE 10 17 1013.1 - 3.6 - Partly cloudy 10 - - - -
21/08:12am 24.5 SE 9 17 1013.1 - 3.2 - Partly cloudy 5 - - - -
21/08:04am 24.5 SE 9 17 1013.1 - 3.2 - Partly cloudy 10 - - - -
21/08:00am 24.4 SE 9 12 1013.1 - 3.2 - Partly cloudy 10 - - - -
21/07:42am 24.4 SE 11 16 1013.1 - 2.4 - Partly cloudy 3 - - - -
21/07:30am 24.5 SE 13 21 1012.9 - 1.6 - Partly cloudy 3 - - - -
21/07:26am 24.7 SE 13 21 1012.8 - 1.0 - Partly cloudy 5 - - - -
21/07:23am 25.2 SE 12 21 1012.7 - 0.8 - Partly cloudy 10 - - - -
21/07:00am 25.5 SE 12 22 1012.4 - 0.8 - Partly cloudy 10 - - - -
21/06:52am 25.6 SE 11 15 1012.3 - 0.8 - Partly cloudy 10 - - - -
21/06:30am 25.5 SE 12 18 1012.1 - 0.8 - Partly cloudy 10 - - - -
21/06:00am 26.1 ESE 10 15 1011.6 - 0.8 - Partly cloudy 10 - - - -
21/05:30am 26.0 SE 10 16 1011.4 - 0.8 - Partly cloudy 10 - - - -
21/05:00am 26.0 ESE 10 15 1011.3 - 0.8 - Partly cloudy 10 - - - -
21/04:30am 26.0 ESE 11 16 1011.0 - 0.8 - Partly cloudy 10 - - - -
21/04:00am 25.6 SE 6 11 1011.0 - 0.8 - Partly cloudy 10 - - - -
21/03:30am 25.5 ESE 7 13 1011.1 - 0.8 - Partly cloudy 10 - - - -
21/03:00am 25.3 SE 7 10 1011.0 - 0.8 - Partly cloudy 10 - - - -
21/02:30am 25.5 SE 8 15 1011.3 - 0.8 - Partly cloudy 10 - - - -
21/02:00am 25.8 SE 10 16 1011.8 - 0.8 - Partly cloudy 10 - - - -
21/01:49am 25.8 ESE 10 16 1011.8 - 0.8 - Partly cloudy 10 - - - -
21/01:30am 25.8 ESE 10 17 1012.0 - 0.8 - Partly cloudy 10 - - - -
21/01:00am 25.9 SE 10 15 1012.5 - 0.6 - Partly cloudy 10 - - - -
21/12:56am 26.0 SE 10 20 1012.6 - 0.6 - Partly cloudy 10 - - - -
21/12:30am 26.5 SE 11 21 1012.7 - 0.6 - Partly cloudy 10 - - - -
21/12:03am 26.5 SE 9 14 1012.9 - 0.6 - Partly cloudy 10 - - - -
21/12:00am 26.5 SE 10 15 1012.8 - 0.6 - Cloudy 10 - - - -
 
Date/Time
EST
Temp

°C
Wind Pressure Rain
since 9am
mm
Weather Cloud Vis
km
Sea
Height
m
Swell
Dir
 
Speed
knots
Gust
knots
hPa Trend Height
m
Period
s
Dir
20/11:52pm 26.6 SE 10 16 1012.9 - 0.6 - Partly cloudy 10 - - - -
20/11:30pm 26.5 SE 10 15 1013.0 - 0.6 - Partly cloudy 10 - - - -
20/11:28pm 26.6 SE 10 15 1013.0 - 0.6 - Partly cloudy 10 - - - -
20/11:00pm 26.3 SSE 8 13 1013.1 - 0.6 - Partly cloudy 10 - - - -
20/10:44pm 26.3 SE 9 14 1013.1 - 0.6 - Partly cloudy 10 - - - -
20/10:30pm 26.0 SE 7 13 1013.1 - 0.6 - Partly cloudy 10 - - - -
20/10:00pm 25.8 SE 8 13 1013.1 - 0.6 - Partly cloudy 10 - - - -
20/09:30pm 25.6 SE 9 18 1013.2 - 0.6 - Partly cloudy 10 - - - -
20/09:00pm 26.4 SE 8 14 1013.1 - 0.6 - Cloudy 10 - - - -
20/08:30pm 26.3 SE 7 11 1013.1 - 0.6 - Partly cloudy 10 - - - -
20/08:04pm 26.3 SE 10 17 1013.0 - 0.6 - Partly cloudy 10 - - - -
20/08:00pm 26.4 SE 9 17 1013.0 - 0.6 - Partly cloudy 10 - - - -
20/07:33pm 26.5 SE 8 14 1012.5 - 0.6 - Partly cloudy 10 - - - -
20/07:30pm 26.4 SE 8 13 1012.4 - 0.6 - Partly cloudy 10 - - - -
20/07:00pm 26.4 SE 7 12 1012.0 - 0.6 - Partly cloudy 10 - - - -
20/06:30pm 26.5 SE 9 15 1011.7 - 0.6 - Partly cloudy 10 - - - -
20/06:00pm 26.6 SE 7 12 1011.5 - 0.6 - Mostly cloudy 10 - - - -
20/05:30pm 26.7 SE 9 13 1011.3 - 0.6 - Partly cloudy 10 - - - -
20/05:00pm 26.5 SE 9 13 1011.1 - 0.6 - Partly cloudy 10 - - - -
20/04:45pm 26.2 SSE 12 21 1011.1 - 0.6 - Partly cloudy 7 - - - -
20/04:31pm 27.5 SE 13 22 1011.0 - 0.2 - Partly cloudy 10 - - - -
20/04:30pm 27.7 SE 13 22 1011.0 - 0.2 - Partly cloudy 10 - - - -
20/04:02pm 27.3 ESE 12 19 1010.7 - 0.2 - Partly cloudy 10 - - - -
20/04:00pm 27.3 ESE 12 19 1010.7 - 0.2 - Partly cloudy 10 - - - -
20/03:50pm 28.5 ESE 13 19 1010.6 - 0.2 - Partly cloudy 10 - - - -
20/03:48pm 28.6 ESE 13 19 1010.6 - 0.2 - Partly cloudy 10 - - - -
20/03:30pm 28.4 SE 11 17 1010.7 - 0.2 - Partly cloudy 10 - - - -
20/03:17pm 28.6 SE 11 16 1010.5 - 0.2 - Partly cloudy 10 - - - -
20/03:00pm 27.7 SE 12 17 1010.6 F 0.2 Fine Mostly cloudy 20 - - - -
20/02:30pm 28.4 SE 14 22 1010.9 - 0.2 - Partly cloudy 10 - - - -
20/02:00pm 28.6 ESE 13 21 1011.2 - 0.2 - Partly cloudy 10 - - - -
20/01:36pm 29.5 SE 12 18 1011.4 - 0.2 - Partly cloudy 10 - - - -
20/01:30pm 29.4 SE 12 19 1011.5 - 0.2 - Partly cloudy 10 - - - -
20/01:00pm 28.9 ESE 14 19 1011.8 - 0.2 - Partly cloudy 10 - - - -
20/12:58pm 29.2 ESE 14 19 1011.8 - 0.2 - Partly cloudy 10 - - - -
20/12:30pm 27.7 SE 12 20 1012.3 - 0.2 - Partly cloudy 8 - - - -
20/12:04pm 29.0 ESE 13 21 1012.3 - 0.2 - Partly cloudy 10 - - - -
20/12:00pm 28.6 ESE 14 19 1012.3 - 0.2 - Mostly cloudy 10 - - - -
20/11:47am 28.4 ESE 14 19 1012.5 - 0.2 - Partly cloudy 10 - - - -
20/11:30am 29.2 ESE 14 23 1012.7 - 0.2 - Partly cloudy 10 - - - -
20/11:04am 29.0 ESE 15 24 1012.9 - 0.2 - Partly cloudy 10 - - - -
20/11:00am 28.8 ESE 17 25 1012.9 - 0.2 - Partly cloudy 10 - - - -
20/10:52am 29.1 ESE 16 25 1013.1 - 0.2 - Partly cloudy 10 - - - -
20/10:30am 28.5 ESE 13 22 1013.2 - 0.2 - Partly cloudy 10 - - - -
20/10:00am 27.7 SE 13 20 1013.5 - 0.0 - Partly cloudy 10 - - - -
20/09:47am 27.9 ESE 15 25 1013.5 - 0.0 - Partly cloudy 10 - - - -
20/09:41am 27.8 ESE 15 25 1013.5 - 0.0 - Partly cloudy 10 - - - -
20/09:30am 28.2 ESE 14 22 1013.4 - 0.0 - Partly cloudy 10 - - - -
20/09:00am 27.8 SE 13 21 1013.4 R 4.2 Haze Partly cloudy 20 - - - -
20/08:45am 27.8 ESE 13 19 1013.3 - 4.2 - Partly cloudy 10 - - - -
20/08:30am 27.0 SE 10 15 1013.2 - 4.2 - Partly cloudy 10 - - - -
20/08:00am 27.4 SSE 10 13 1012.8 - 4.2 - Partly cloudy 10 - - - -
20/07:30am 26.7 SE 9 14 1012.7 - 4.2 - Partly cloudy 10 - - - -
20/07:00am 26.4 SE 8 14 1012.5 - 4.2 - Partly cloudy 10 - - - -
20/06:30am 26.2 SE 8 13 1012.2 - 4.2 - Partly cloudy 10 - - - -
20/06:19am 26.1 SE 7 10 1012.1 - 4.2 - Partly cloudy 10 - - - -
20/06:00am 25.9 SE 9 15 1011.9 - 4.2 - Cloudy 10 - - - -
20/05:56am 26.0 SE 10 15 1012.0 - 4.2 - Partly cloudy 10 - - - -
20/05:30am 26.4 SE 7 10 1011.7 - 4.2 - Partly cloudy 10 - - - -
20/05:21am 26.3 SE 8 11 1011.7 - 4.2 - Partly cloudy 10 - - - -
20/05:00am 26.4 SE 10 19 1011.6 - 4.2 - Partly cloudy 10 - - - -
20/04:53am 26.5 SE 8 19 1011.6 - 4.2 - Partly cloudy 10 - - - -
20/04:36am 26.4 SE 8 12 1011.7 - 4.2 - Partly cloudy 10 - - - -
20/04:30am 26.5 SE 8 13 1011.8 - 4.2 - Partly cloudy 10 - - - -
20/04:00am 26.4 SE 9 14 1011.8 - 4.2 - Partly cloudy 10 - - - -
20/03:45am 26.5 SE 8 11 1011.7 - 4.2 - Partly cloudy 10 - - - -
20/03:31am 26.4 SE 8 12 1011.9 - 4.2 - Partly cloudy 10 - - - -
20/03:30am 26.4 SE 8 12 1011.9 - 4.2 - Partly cloudy 10 - - - -
20/03:00am 26.3 SE 8 15 1012.0 - 4.2 - Mostly clear 10 - - - -
20/02:50am 26.4 SE 8 16 1012.1 - 4.2 - Partly cloudy 10 - - - -
20/02:30am 26.5 SE 9 16 1012.3 - 4.2 - Partly cloudy 10 - - - -
20/02:27am 26.3 SE 8 13 1012.2 - 4.2 - Partly cloudy 10 - - - -
20/02:00am 26.4 SE 9 18 1012.3 - 4.2 - Partly cloudy 10 - - - -
20/01:30am 26.5 SE 10 14 1012.6 - 4.2 - Partly cloudy 10 - - - -
20/01:00am 26.6 SE 10 15 1013.2 - 4.2 - Partly cloudy 10 - - - -
20/12:30am 26.5 SE 10 16 1013.5 - 4.2 - Partly cloudy 10 - - - -
20/12:00am 26.5 SE 10 16 1013.4 - 4.2 - Partly cloudy 10 - - - -
 
Date/Time
EST
Temp

°C
Wind Pressure Rain
since 9am
mm
Weather Cloud Vis
km
Sea
Height
m
Swell
Dir
 
Speed
knots
Gust
knots
hPa Trend Height
m
Period
s
Dir
19/11:30pm 26.6 SE 9 16 1013.7 - 4.2 - Partly cloudy 10 - - - -
19/11:00pm 26.4 SE 9 15 1013.8 - 4.2 - Partly cloudy 10 - - - -
19/10:30pm 26.2 SE 8 12 1013.8 - 4.2 - Partly cloudy 10 - - - -
19/10:00pm 26.7 SE 8 15 1013.9 - 4.0 - Partly cloudy 10 - - - -
19/09:30pm 26.7 SE 9 14 1013.8 - 4.0 - Partly cloudy 10 - - - -
19/09:00pm 26.4 SE 8 15 1013.4 - 4.0 - Cloudy 10 - - - -
19/08:30pm 26.3 SE 8 15 1013.1 - 4.0 - Partly cloudy 10 - - - -
19/08:00pm 26.2 SE 7 11 1012.8 - 4.0 - Partly cloudy 10 - - - -
19/07:30pm 25.9 SE 7 11 1012.5 - 4.0 - Partly cloudy 7 - - - -
19/07:00pm 26.2 SE 8 12 1012.1 - 3.8 - Partly cloudy 10 - - - -
19/06:30pm 26.3 SSE 7 12 1011.9 - 3.8 - Partly cloudy 10 - - - -
19/06:00pm 26.0 SE 7 11 1011.5 - 3.8 - Cloudy 10 - - - -
19/05:30pm 25.9 SE 6 10 1011.7 - 3.8 - Partly cloudy 9 - - - -
19/05:28pm 25.8 ESE 6 10 1011.8 - 3.8 - Partly cloudy 9 - - - -
19/05:23pm 25.6 ESE 7 10 1011.8 - 3.8 - Partly cloudy 7 - - - -
19/05:12pm 25.7 ESE 8 11 1011.8 - 3.8 - Partly cloudy 4 - - - -
19/05:09pm 25.7 ESE 8 11 1011.8 - 3.8 - Partly cloudy 3 - - - -
19/05:00pm 26.1 SE 8 12 1011.7 - 2.6 - Partly cloudy 5 - - - -
19/04:59pm 26.2 SE 8 12 1011.8 - 2.6 - Partly cloudy 5 - - - -
19/04:45pm 26.6 ESE 8 14 1011.6 - 2.0 - Partly cloudy 10 - - - -
19/04:41pm 26.5 ESE 9 14 1011.6 - 2.0 - Partly cloudy 10 - - - -
19/04:30pm 26.1 ESE 12 19 1011.7 - 2.0 - Partly cloudy 4 - - - -
19/04:26pm 26.5 ESE 13 19 1011.7 - 1.8 - Partly cloudy 5 - - - -
19/04:00pm 27.8 ESE 12 19 1011.6 - 1.8 - Partly cloudy 10 - - - -
19/03:30pm 27.8 ESE 12 19 1011.6 - 1.8 - Partly cloudy 10 - - - -
19/03:20pm 27.2 SE 13 18 1011.8 - 1.8 - Partly cloudy 10 - - - -
19/03:04pm 27.4 SE 9 16 1011.9 - 1.8 - Partly cloudy 10 - - - -
19/03:02pm 27.4 SE 9 16 1011.9 - 1.8 - Partly cloudy 10 - - - -
19/03:00pm 27.2 SE 10 16 1011.8 F 1.8 Fine Partly cloudy 30 - - - -
19/02:46pm 27.2 ESE 15 25 1012.0 - 1.8 - Partly cloudy 10 - - - -
19/02:30pm 27.9 SE 12 18 1011.8 - 1.6 - Partly cloudy 10 - - - -
19/02:00pm 27.9 SE 14 21 1011.9 - 1.6 - Partly cloudy 10 - - - -
19/01:50pm 28.4 SE 15 27 1011.9 - 1.6 - Partly cloudy 10 - - - -
19/01:43pm 29.1 SE 14 22 1012.0 - 1.6 - Partly cloudy 10 - - - -
19/01:30pm 28.2 SE 13 20 1012.0 - 1.6 - Partly cloudy 10 - - - -
19/01:00pm 26.7 SE 9 14 1012.6 - 1.6 - Partly cloudy 10 - - - -
19/12:31pm 25.8 SE 8 13 1013.1 - 1.6 - Partly cloudy 10 - - - -
19/12:30pm 25.7 SE 8 13 1013.1 - 1.6 - Partly cloudy 10 - - - -
19/12:13pm 25.2 ESE 15 25 1013.6 - 1.6 - Partly cloudy 3 - - - -
19/12:11pm 25.2 ESE 14 25 1013.6 - 1.4 - Partly cloudy 4 - - - -
19/12:00pm 28.3 ESE 14 22 1013.6 - 0.2 - Cloudy 10 - - - -
19/11:30am 28.3 ESE 15 23 1014.3 - 0.2 - Partly cloudy 10 - - - -
19/11:00am 28.4 ESE 14 24 1014.7 - 0.0 - Partly cloudy 10 - - - -
19/10:30am 28.3 ESE 14 19 1015.0 - 0.0 - Partly cloudy 10 - - - -
19/10:00am 28.1 ESE 11 18 1015.0 - 0.0 - Partly cloudy 10 - - - -

Other Formats:

Comma delimited format used in spreadsheet applications
http://www.bom.gov.au/fwo/IDQ60701/IDQ60701.95283.axf

JavaScript Object Notation format (JSON) in row-major order
http://www.bom.gov.au/fwo/IDQ60701/IDQ60701.95283.json